sensor_id;sensor_type;location;lat;lon;timestamp;pressure;altitude;pressure_sealevel;temperature;humidity
56402;BME280;42299;35.160;26.100;2023-12-29T00:00:42;102125.91;;;12.12;100.00
56402;BME280;42299;35.160;26.100;2023-12-29T00:06:06;102127.53;;;12.09;100.00
56402;BME280;42299;35.160;26.100;2023-12-29T00:11:29;102131.00;;;12.34;100.00
56402;BME280;42299;35.160;26.100;2023-12-29T00:16:51;102127.69;;;12.42;100.00
56402;BME280;42299;35.160;26.100;2023-12-29T00:22:19;102127.06;;;12.20;100.00
56402;BME280;42299;35.160;26.100;2023-12-29T00:27:42;102124.63;;;12.00;100.00
56402;BME280;42299;35.160;26.100;2023-12-29T00:33:05;102132.63;;;12.01;100.00
56402;BME280;42299;35.160;26.100;2023-12-29T00:38:29;102133.66;;;12.06;100.00
56402;BME280;42299;35.160;26.100;2023-12-29T00:43:52;102132.47;;;12.25;100.00
56402;BME280;42299;35.160;26.100;2023-12-29T00:49:15;102137.44;;;12.14;100.00
56402;BME280;42299;35.160;26.100;2023-12-29T00:54:40;102134.44;;;12.04;100.00
56402;BME280;42299;35.160;26.100;2023-12-29T01:00:05;102139.22;;;12.15;100.00
56402;BME280;42299;35.160;26.100;2023-12-29T01:05:29;102133.44;;;12.27;100.00
56402;BME280;42299;35.160;26.100;2023-12-29T01:10:53;102138.50;;;12.19;100.00
56402;BME280;42299;35.160;26.100;2023-12-29T01:16:15;102143.69;;;12.45;100.00
56402;BME280;42299;35.160;26.100;2023-12-29T01:21:38;102142.53;;;12.65;100.00
56402;BME280;42299;35.160;26.100;2023-12-29T01:27:02;102146.25;;;12.71;100.00
56402;BME280;42299;35.160;26.100;2023-12-29T01:32:26;102139.50;;;12.83;100.00
56402;BME280;42299;35.160;26.100;2023-12-29T01:37:48;102129.75;;;12.82;100.00
56402;BME280;42299;35.160;26.100;2023-12-29T01:43:13;102125.31;;;12.51;100.00
56402;BME280;42299;35.160;26.100;2023-12-29T01:48:35;102129.00;;;12.56;100.00
56402;BME280;42299;35.160;26.100;2023-12-29T01:53:59;102121.41;;;12.38;100.00
56402;BME280;42299;35.160;26.100;2023-12-29T01:59:24;102118.34;;;12.54;100.00
56402;BME280;42299;35.160;26.100;2023-12-29T02:04:47;102111.19;;;12.50;100.00
56402;BME280;42299;35.160;26.100;2023-12-29T02:10:10;102108.66;;;12.55;100.00
56402;BME280;42299;35.160;26.100;2023-12-29T02:15:38;102098.88;;;12.52;100.00
56402;BME280;42299;35.160;26.100;2023-12-29T02:21:01;102097.94;;;12.50;100.00
56402;BME280;42299;35.160;26.100;2023-12-29T02:26:29;102086.38;;;12.47;100.00
56402;BME280;42299;35.160;26.100;2023-12-29T02:31:59;102082.47;;;12.35;100.00
56402;BME280;42299;35.160;26.100;2023-12-29T02:37:23;102076.69;;;12.19;100.00
56402;BME280;42299;35.160;26.100;2023-12-29T02:42:48;102075.66;;;12.14;100.00
56402;BME280;42299;35.160;26.100;2023-12-29T02:48:11;102061.56;;;12.45;100.00
56402;BME280;42299;35.160;26.100;2023-12-29T02:53:34;102061.47;;;12.42;100.00
56402;BME280;42299;35.160;26.100;2023-12-29T02:58:59;102056.56;;;12.55;100.00
56402;BME280;42299;35.160;26.100;2023-12-29T03:04:23;102061.88;;;12.55;100.00
56402;BME280;42299;35.160;26.100;2023-12-29T03:09:46;102049.19;;;12.44;100.00
56402;BME280;42299;35.160;26.100;2023-12-29T03:15:10;102045.13;;;12.56;100.00
56402;BME280;42299;35.160;26.100;2023-12-29T03:20:33;102057.31;;;12.50;100.00
56402;BME280;42299;35.160;26.100;2023-12-29T03:25:55;102048.34;;;12.45;100.00
56402;BME280;42299;35.160;26.100;2023-12-29T03:31:19;102050.63;;;12.32;100.00
56402;BME280;42299;35.160;26.100;2023-12-29T03:36:43;102050.03;;;12.13;100.00
56402;BME280;42299;35.160;26.100;2023-12-29T03:42:05;102056.19;;;12.12;100.00
56402;BME280;42299;35.160;26.100;2023-12-29T03:47:30;102057.84;;;12.38;100.00
56402;BME280;42299;35.160;26.100;2023-12-29T03:52:54;102061.88;;;12.55;100.00
56402;BME280;42299;35.160;26.100;2023-12-29T03:58:17;102063.97;;;12.67;100.00
56402;BME280;42299;35.160;26.100;2023-12-29T04:03:42;102071.16;;;12.71;100.00
56402;BME280;42299;35.160;26.100;2023-12-29T04:09:04;102075.16;;;12.57;100.00
56402;BME280;42299;35.160;26.100;2023-12-29T04:14:27;102080.84;;;12.41;100.00
56402;BME280;42299;35.160;26.100;2023-12-29T04:19:51;102091.06;;;12.57;100.00
56402;BME280;42299;35.160;26.100;2023-12-29T04:25:14;102097.38;;;12.62;100.00
56402;BME280;42299;35.160;26.100;2023-12-29T04:30:38;102098.13;;;12.28;100.00
56402;BME280;42299;35.160;26.100;2023-12-29T04:36:03;102109.03;;;12.37;100.00
56402;BME280;42299;35.160;26.100;2023-12-29T04:41:26;102107.69;;;12.23;100.00
56402;BME280;42299;35.160;26.100;2023-12-29T04:46:48;102106.19;;;12.31;100.00
56402;BME280;42299;35.160;26.100;2023-12-29T04:52:12;102104.69;;;12.39;100.00
56402;BME280;42299;35.160;26.100;2023-12-29T04:57:35;102104.69;;;12.41;100.00
56402;BME280;42299;35.160;26.100;2023-12-29T05:02:57;102103.00;;;12.43;100.00
56402;BME280;42299;35.160;26.100;2023-12-29T05:08:21;102109.31;;;12.46;100.00
56402;BME280;42299;35.160;26.100;2023-12-29T05:13:44;102105.91;;;12.22;100.00
56402;BME280;42299;35.160;26.100;2023-12-29T05:19:07;102110.72;;;12.35;100.00
56402;BME280;42299;35.160;26.100;2023-12-29T05:24:31;102102.28;;;12.48;100.00
56402;BME280;42299;35.160;26.100;2023-12-29T05:29:54;102105.53;;;12.38;100.00
56402;BME280;42299;35.160;26.100;2023-12-29T05:35:16;102104.75;;;12.42;100.00
56402;BME280;42299;35.160;26.100;2023-12-29T05:40:41;102100.13;;;12.35;100.00
56402;BME280;42299;35.160;26.100;2023-12-29T05:46:09;102098.88;;;12.52;100.00
56402;BME280;42299;35.160;26.100;2023-12-29T05:51:32;102098.22;;;12.61;100.00
56402;BME280;42299;35.160;26.100;2023-12-29T05:56:56;102103.75;;;12.68;100.00
56402;BME280;42299;35.160;26.100;2023-12-29T06:02:20;102102.06;;;12.70;100.00
56402;BME280;42299;35.160;26.100;2023-12-29T06:07:43;102111.88;;;12.74;100.00
56402;BME280;42299;35.160;26.100;2023-12-29T06:13:07;102110.63;;;12.92;100.00
56402;BME280;42299;35.160;26.100;2023-12-29T06:18:30;102105.06;;;13.14;100.00
56402;BME280;42299;35.160;26.100;2023-12-29T06:23:53;102113.53;;;14.04;100.00
56402;BME280;42299;35.160;26.100;2023-12-29T06:29:17;102092.31;;;17.28;100.00
56402;BME280;42299;35.160;26.100;2023-12-29T06:34:40;102088.13;;;19.86;100.00
56402;BME280;42299;35.160;26.100;2023-12-29T06:40:03;102086.56;;;21.45;100.00
56402;BME280;42299;35.160;26.100;2023-12-29T06:45:29;102086.06;;;22.78;100.00
56402;BME280;42299;35.160;26.100;2023-12-29T06:50:51;102087.69;;;23.51;97.11
56402;BME280;42299;35.160;26.100;2023-12-29T06:56:14;102088.34;;;24.15;92.51
56402;BME280;42299;35.160;26.100;2023-12-29T07:01:40;102089.03;;;24.28;89.90
56402;BME280;42299;35.160;26.100;2023-12-29T07:07:03;102101.50;;;24.34;91.51
56402;BME280;42299;35.160;26.100;2023-12-29T07:12:25;102088.38;;;24.58;87.44
56402;BME280;42299;35.160;26.100;2023-12-29T07:17:49;102103.78;;;25.35;78.77
56402;BME280;42299;35.160;26.100;2023-12-29T07:23:12;102104.34;;;25.49;76.41
56402;BME280;42299;35.160;26.100;2023-12-29T07:28:35;102102.88;;;26.70;67.12
56402;BME280;42299;35.160;26.100;2023-12-29T07:33:59;102101.88;;;26.73;64.05
56402;BME280;42299;35.160;26.100;2023-12-29T07:39:22;102102.41;;;26.85;61.47
56402;BME280;42299;35.160;26.100;2023-12-29T07:44:44;102101.38;;;27.74;57.35
56402;BME280;42299;35.160;26.100;2023-12-29T07:50:09;102106.81;;;28.74;49.93
56402;BME280;42299;35.160;26.100;2023-12-29T07:55:32;102097.28;;;28.62;49.01
56402;BME280;42299;35.160;26.100;2023-12-29T08:00:55;102107.91;;;29.80;45.46
56402;BME280;42299;35.160;26.100;2023-12-29T08:06:19;102107.22;;;30.37;42.83
56402;BME280;42299;35.160;26.100;2023-12-29T08:11:41;102112.50;;;31.00;41.06
56402;BME280;42299;35.160;26.100;2023-12-29T08:17:05;102105.09;;;31.39;38.78
56402;BME280;42299;35.160;26.100;2023-12-29T08:22:31;102114.19;;;31.40;38.06
56402;BME280;42299;35.160;26.100;2023-12-29T08:27:54;102110.69;;;32.08;37.73
56402;BME280;42299;35.160;26.100;2023-12-29T08:33:16;102099.91;;;31.88;37.11
56402;BME280;42299;35.160;26.100;2023-12-29T08:38:40;102098.31;;;32.18;36.26
56402;BME280;42299;35.160;26.100;2023-12-29T08:44:06;102098.94;;;32.06;35.82
56402;BME280;42299;35.160;26.100;2023-12-29T08:49:28;102094.22;;;32.60;35.08
56402;BME280;42299;35.160;26.100;2023-12-29T08:54:53;102092.19;;;33.12;34.11
56402;BME280;42299;35.160;26.100;2023-12-29T09:00:15;102089.53;;;32.79;33.51
56402;BME280;42299;35.160;26.100;2023-12-29T09:05:39;102083.44;;;32.90;33.00
56402;BME280;42299;35.160;26.100;2023-12-29T09:11:04;102075.97;;;33.25;32.23
56402;BME280;42299;35.160;26.100;2023-12-29T09:16:28;102070.50;;;33.25;32.19
56402;BME280;42299;35.160;26.100;2023-12-29T09:21:50;102075.28;;;33.67;31.35
56402;BME280;42299;35.160;26.100;2023-12-29T09:27:14;102055.81;;;34.01;31.31
56402;BME280;42299;35.160;26.100;2023-12-29T09:32:38;102054.00;;;33.56;31.34
56402;BME280;42299;35.160;26.100;2023-12-29T09:38:00;102055.47;;;33.00;31.36
56402;BME280;42299;35.160;26.100;2023-12-29T09:43:25;102049.09;;;32.51;32.38
56402;BME280;42299;35.160;26.100;2023-12-29T09:48:48;102041.66;;;32.70;32.09
56402;BME280;42299;35.160;26.100;2023-12-29T09:54:13;102031.53;;;32.72;32.04
56402;BME280;42299;35.160;26.100;2023-12-29T09:59:38;102021.25;;;32.60;32.66
56402;BME280;42299;35.160;26.100;2023-12-29T10:05:03;102019.84;;;33.47;31.60
56402;BME280;42299;35.160;26.100;2023-12-29T10:10:26;102013.81;;;33.86;30.86
56402;BME280;42299;35.160;26.100;2023-12-29T10:16:01;101997.47;;;33.69;31.38
56402;BME280;42299;35.160;26.100;2023-12-29T10:21:29;102003.56;;;32.67;32.40
56402;BME280;42299;35.160;26.100;2023-12-29T10:26:52;101998.91;;;31.69;33.69
56402;BME280;42299;35.160;26.100;2023-12-29T10:32:16;101982.91;;;31.79;33.59
56402;BME280;42299;35.160;26.100;2023-12-29T10:37:40;101978.06;;;31.84;33.78
56402;BME280;42299;35.160;26.100;2023-12-29T10:43:02;101972.78;;;30.74;35.06
56402;BME280;42299;35.160;26.100;2023-12-29T10:48:29;101958.63;;;30.66;34.98
56402;BME280;42299;35.160;26.100;2023-12-29T10:53:54;101961.13;;;27.49;40.17
56402;BME280;42299;35.160;26.100;2023-12-29T10:59:19;101959.00;;;25.57;45.22
56402;BME280;42299;35.160;26.100;2023-12-29T11:04:43;101951.78;;;27.05;45.18
56402;BME280;42299;35.160;26.100;2023-12-29T11:10:07;101950.13;;;27.01;44.63
56402;BME280;42299;35.160;26.100;2023-12-29T11:15:34;101943.22;;;26.35;47.25
56402;BME280;42299;35.160;26.100;2023-12-29T11:20:59;101939.72;;;25.35;51.61
56402;BME280;42299;35.160;26.100;2023-12-29T11:26:22;101944.16;;;24.66;56.07
56402;BME280;42299;35.160;26.100;2023-12-29T11:31:46;101944.44;;;24.13;60.74
56402;BME280;42299;35.160;26.100;2023-12-29T11:37:21;101943.31;;;23.82;64.95
56402;BME280;42299;35.160;26.100;2023-12-29T11:42:51;101931.22;;;24.00;65.22
56402;BME280;42299;35.160;26.100;2023-12-29T11:48:53;101934.59;;;24.51;62.23
56402;BME280;42299;35.160;26.100;2023-12-29T11:54:24;101923.00;;;24.47;62.33
56402;BME280;42299;35.160;26.100;2023-12-29T11:59:47;101923.69;;;23.72;69.21
56402;BME280;42299;35.160;26.100;2023-12-29T12:05:10;101921.75;;;23.31;74.01
56402;BME280;42299;35.160;26.100;2023-12-29T12:10:35;101927.28;;;23.24;76.12
56402;BME280;42299;35.160;26.100;2023-12-29T12:16:00;101915.16;;;23.00;79.81
56402;BME280;42299;35.160;26.100;2023-12-29T12:21:24;101919.72;;;23.47;79.10
56402;BME280;42299;35.160;26.100;2023-12-29T12:26:49;101916.31;;;24.25;73.37
56402;BME280;42299;35.160;26.100;2023-12-29T12:32:11;101910.31;;;24.09;70.63
56402;BME280;42299;35.160;26.100;2023-12-29T12:37:34;101908.03;;;23.48;76.10
56402;BME280;42299;35.160;26.100;2023-12-29T12:43:00;101912.13;;;23.18;78.67
56402;BME280;42299;35.160;26.100;2023-12-29T12:48:28;101906.72;;;23.20;78.16
56402;BME280;42299;35.160;26.100;2023-12-29T12:53:56;101911.41;;;23.10;77.48
56402;BME280;42299;35.160;26.100;2023-12-29T12:59:20;101916.06;;;22.97;79.65
56402;BME280;42299;35.160;26.100;2023-12-29T13:04:43;101920.09;;;22.74;82.14
56402;BME280;42299;35.160;26.100;2023-12-29T13:10:07;101926.63;;;22.54;84.97
56402;BME280;42299;35.160;26.100;2023-12-29T13:15:31;101920.09;;;22.09;88.27
56402;BME280;42299;35.160;26.100;2023-12-29T13:20:53;101929.28;;;21.92;90.51
56402;BME280;42299;35.160;26.100;2023-12-29T13:26:18;101933.84;;;21.85;91.08
56402;BME280;42299;35.160;26.100;2023-12-29T13:31:43;101939.31;;;21.74;92.76
56402;BME280;42299;35.160;26.100;2023-12-29T13:37:16;101933.19;;;21.65;93.93
56402;BME280;42299;35.160;26.100;2023-12-29T13:42:41;101939.59;;;21.50;96.00
56402;BME280;42299;35.160;26.100;2023-12-29T13:48:08;101933.56;;;21.28;97.11
56402;BME280;42299;35.160;26.100;2023-12-29T13:53:32;101931.13;;;20.98;99.35
56402;BME280;42299;35.160;26.100;2023-12-29T13:58:55;101941.09;;;20.82;100.00
56402;BME280;42299;35.160;26.100;2023-12-29T14:04:19;101937.59;;;20.74;100.00
56402;BME280;42299;35.160;26.100;2023-12-29T14:09:42;101932.28;;;20.66;100.00
56402;BME280;42299;35.160;26.100;2023-12-29T14:15:05;101939.47;;;20.55;100.00
56402;BME280;42299;35.160;26.100;2023-12-29T14:20:36;101939.56;;;20.45;100.00
56402;BME280;42299;35.160;26.100;2023-12-29T14:26:02;101941.41;;;20.32;100.00
56402;BME280;42299;35.160;26.100;2023-12-29T14:31:25;101944.16;;;20.21;100.00
56402;BME280;42299;35.160;26.100;2023-12-29T14:36:49;101946.81;;;20.15;100.00
56402;BME280;42299;35.160;26.100;2023-12-29T14:42:12;101940.63;;;20.06;100.00
56402;BME280;42299;35.160;26.100;2023-12-29T14:47:35;101943.31;;;20.03;100.00
56402;BME280;42299;35.160;26.100;2023-12-29T14:52:59;101932.66;;;19.95;100.00
56402;BME280;42299;35.160;26.100;2023-12-29T14:58:22;101931.78;;;19.87;100.00
56402;BME280;42299;35.160;26.100;2023-12-29T15:03:45;101937.16;;;19.78;100.00
56402;BME280;42299;35.160;26.100;2023-12-29T15:09:09;101935.44;;;19.62;100.00
56402;BME280;42299;35.160;26.100;2023-12-29T15:14:32;101938.13;;;19.42;100.00
56402;BME280;42299;35.160;26.100;2023-12-29T15:19:56;101936.34;;;19.38;100.00
56402;BME280;42299;35.160;26.100;2023-12-29T15:25:20;101927.44;;;19.34;100.00
56402;BME280;42299;35.160;26.100;2023-12-29T15:30:44;101928.31;;;19.41;100.00
56402;BME280;42299;35.160;26.100;2023-12-29T15:36:12;101931.00;;;19.41;100.00
56402;BME280;42299;35.160;26.100;2023-12-29T15:41:36;101930.09;;;19.34;100.00
56402;BME280;42299;35.160;26.100;2023-12-29T15:46:58;101928.34;;;19.20;100.00
56402;BME280;42299;35.160;26.100;2023-12-29T15:52:22;101928.34;;;19.00;100.00
56402;BME280;42299;35.160;26.100;2023-12-29T15:57:48;101935.50;;;18.90;100.00
56402;BME280;42299;35.160;26.100;2023-12-29T16:03:11;101935.47;;;18.92;100.00
56402;BME280;42299;35.160;26.100;2023-12-29T16:08:33;101940.84;;;18.86;100.00
56402;BME280;42299;35.160;26.100;2023-12-29T16:13:58;101939.94;;;18.75;100.00
56402;BME280;42299;35.160;26.100;2023-12-29T16:19:20;101941.72;;;18.63;100.00
56402;BME280;42299;35.160;26.100;2023-12-29T16:24:42;101945.28;;;18.65;100.00
56402;BME280;42299;35.160;26.100;2023-12-29T16:30:08;101952.34;;;18.51;100.00
56402;BME280;42299;35.160;26.100;2023-12-29T16:35:31;101954.94;;;18.25;100.00
56402;BME280;42299;35.160;26.100;2023-12-29T16:40:53;101949.50;;;18.00;100.00
56402;BME280;42299;35.160;26.100;2023-12-29T16:46:18;101940.53;;;17.87;100.00
56402;BME280;42299;35.160;26.100;2023-12-29T16:51:40;101934.25;;;17.76;100.00
56402;BME280;42299;35.160;26.100;2023-12-29T16:57:04;101954.59;;;17.57;100.00
56402;BME280;42299;35.160;26.100;2023-12-29T17:02:29;101950.06;;;17.42;100.00
56402;BME280;42299;35.160;26.100;2023-12-29T17:07:51;101951.59;;;17.08;100.00
56402;BME280;42299;35.160;26.100;2023-12-29T17:13:14;101945.25;;;16.96;100.00
56402;BME280;42299;35.160;26.100;2023-12-29T17:18:38;101946.78;;;16.66;100.00
56402;BME280;42299;35.160;26.100;2023-12-29T17:24:01;101944.91;;;16.59;100.00
56402;BME280;42299;35.160;26.100;2023-12-29T17:29:23;101944.69;;;16.40;100.00
56402;BME280;42299;35.160;26.100;2023-12-29T17:34:48;101943.69;;;16.31;100.00
56402;BME280;42299;35.160;26.100;2023-12-29T17:40:11;101948.00;;;16.19;100.00
56402;BME280;42299;35.160;26.100;2023-12-29T17:45:34;101944.31;;;16.08;100.00
56402;BME280;42299;35.160;26.100;2023-12-29T17:50:58;101941.41;;;15.89;100.00
56402;BME280;42299;35.160;26.100;2023-12-29T17:56:20;101937.44;;;15.57;100.00
56402;BME280;42299;35.160;26.100;2023-12-29T18:01:43;101950.41;;;15.36;100.00
56402;BME280;42299;35.160;26.100;2023-12-29T18:07:07;101941.91;;;15.04;100.00
56402;BME280;42299;35.160;26.100;2023-12-29T18:12:29;101950.44;;;14.83;100.00
56402;BME280;42299;35.160;26.100;2023-12-29T18:17:52;101946.06;;;14.87;100.00
56402;BME280;42299;35.160;26.100;2023-12-29T18:23:16;101943.00;;;15.15;100.00
56402;BME280;42299;35.160;26.100;2023-12-29T18:28:39;101940.44;;;15.24;100.00
56402;BME280;42299;35.160;26.100;2023-12-29T18:34:04;101948.09;;;15.01;100.00
56402;BME280;42299;35.160;26.100;2023-12-29T18:39:29;101935.41;;;14.87;100.00
56402;BME280;42299;35.160;26.100;2023-12-29T18:44:52;101943.38;;;14.85;100.00
56402;BME280;42299;35.160;26.100;2023-12-29T18:50:15;101945.78;;;14.70;100.00
56402;BME280;42299;35.160;26.100;2023-12-29T18:55:39;101950.53;;;14.89;100.00
56402;BME280;42299;35.160;26.100;2023-12-29T19:01:05;101948.28;;;15.13;100.00
56402;BME280;42299;35.160;26.100;2023-12-29T19:06:27;101940.56;;;15.32;100.00
56402;BME280;42299;35.160;26.100;2023-12-29T19:11:51;101938.16;;;15.50;100.00
56402;BME280;42299;35.160;26.100;2023-12-29T19:17:14;101937.59;;;15.69;100.00
56402;BME280;42299;35.160;26.100;2023-12-29T19:22:39;101928.88;;;15.79;100.00
56402;BME280;42299;35.160;26.100;2023-12-29T19:28:06;101933.97;;;15.64;100.00
56402;BME280;42299;35.160;26.100;2023-12-29T19:33:28;101945.09;;;15.36;100.00
56402;BME280;42299;35.160;26.100;2023-12-29T19:38:51;101943.19;;;15.30;100.00
56402;BME280;42299;35.160;26.100;2023-12-29T19:44:16;101933.63;;;15.43;100.00
56402;BME280;42299;35.160;26.100;2023-12-29T19:49:40;101935.50;;;15.47;100.00
56402;BME280;42299;35.160;26.100;2023-12-29T19:55:03;101926.47;;;15.36;100.00
56402;BME280;42299;35.160;26.100;2023-12-29T20:00:27;101939.72;;;15.33;100.00
56402;BME280;42299;35.160;26.100;2023-12-29T20:05:50;101939.28;;;15.61;100.00
56402;BME280;42299;35.160;26.100;2023-12-29T20:11:13;101938.56;;;15.74;100.00
56402;BME280;42299;35.160;26.100;2023-12-29T20:16:37;101931.44;;;15.73;100.00
56402;BME280;42299;35.160;26.100;2023-12-29T20:22:00;101936.63;;;15.63;100.00
56402;BME280;42299;35.160;26.100;2023-12-29T20:27:22;101931.22;;;15.57;100.00
56402;BME280;42299;35.160;26.100;2023-12-29T20:32:46;101919.81;;;15.67;100.00
56402;BME280;42299;35.160;26.100;2023-12-29T20:38:09;101930.75;;;15.86;100.00
56402;BME280;42299;35.160;26.100;2023-12-29T20:43:32;101920.94;;;15.84;100.00
56402;BME280;42299;35.160;26.100;2023-12-29T20:48:56;101928.47;;;15.52;100.00
56402;BME280;42299;35.160;26.100;2023-12-29T20:54:18;101919.13;;;15.21;100.00
56402;BME280;42299;35.160;26.100;2023-12-29T20:59:42;101922.19;;;14.90;100.00
56402;BME280;42299;35.160;26.100;2023-12-29T21:05:07;101926.44;;;14.80;100.00
56402;BME280;42299;35.160;26.100;2023-12-29T21:10:31;101920.69;;;15.07;100.00
56402;BME280;42299;35.160;26.100;2023-12-29T21:15:53;101918.41;;;15.33;100.00
56402;BME280;42299;35.160;26.100;2023-12-29T21:21:18;101914.94;;;15.35;100.00
56402;BME280;42299;35.160;26.100;2023-12-29T21:26:40;101902.69;;;15.48;100.00
56402;BME280;42299;35.160;26.100;2023-12-29T21:32:04;101900.25;;;15.63;100.00
56402;BME280;42299;35.160;26.100;2023-12-29T21:37:28;101900.50;;;15.81;100.00
56402;BME280;42299;35.160;26.100;2023-12-29T21:42:51;101902.44;;;15.94;100.00
56402;BME280;42299;35.160;26.100;2023-12-29T21:48:16;101888.16;;;15.89;100.00
56402;BME280;42299;35.160;26.100;2023-12-29T21:53:40;101891.78;;;15.96;100.00
56402;BME280;42299;35.160;26.100;2023-12-29T21:59:02;101881.13;;;15.96;100.00
56402;BME280;42299;35.160;26.100;2023-12-29T22:04:25;101868.69;;;15.95;100.00
56402;BME280;42299;35.160;26.100;2023-12-29T22:09:49;101879.41;;;16.00;100.00
56402;BME280;42299;35.160;26.100;2023-12-29T22:15:11;101875.88;;;16.01;100.00
56402;BME280;42299;35.160;26.100;2023-12-29T22:20:34;101863.34;;;15.95;100.00
56402;BME280;42299;35.160;26.100;2023-12-29T22:26:01;101861.66;;;16.02;100.00
56402;BME280;42299;35.160;26.100;2023-12-29T22:31:23;101859.88;;;15.99;100.00
56402;BME280;42299;35.160;26.100;2023-12-29T22:36:45;101855.34;;;15.92;100.00
56402;BME280;42299;35.160;26.100;2023-12-29T22:42:09;101860.72;;;15.98;100.00
56402;BME280;42299;35.160;26.100;2023-12-29T22:47:32;101843.84;;;15.96;100.00
56402;BME280;42299;35.160;26.100;2023-12-29T22:52:54;101847.13;;;15.72;100.00
56402;BME280;42299;35.160;26.100;2023-12-29T22:58:19;101833.06;;;15.85;100.00
56402;BME280;42299;35.160;26.100;2023-12-29T23:03:42;101844.81;;;16.04;100.00
56402;BME280;42299;35.160;26.100;2023-12-29T23:09:04;101846.72;;;16.17;100.00
56402;BME280;42299;35.160;26.100;2023-12-29T23:14:28;101851.28;;;16.29;100.00
56402;BME280;42299;35.160;26.100;2023-12-29T23:19:52;101840.72;;;16.41;100.00
56402;BME280;42299;35.160;26.100;2023-12-29T23:25:15;101845.09;;;16.31;100.00
56402;BME280;42299;35.160;26.100;2023-12-29T23:30:39;101843.38;;;16.37;100.00
56402;BME280;42299;35.160;26.100;2023-12-29T23:36:02;101849.66;;;16.43;100.00
56402;BME280;42299;35.160;26.100;2023-12-29T23:41:24;101837.22;;;16.45;100.00
56402;BME280;42299;35.160;26.100;2023-12-29T23:46:48;101838.91;;;16.32;100.00
56402;BME280;42299;35.160;26.100;2023-12-29T23:52:11;101829.03;;;16.21;100.00
56402;BME280;42299;35.160;26.100;2023-12-29T23:57:36;101841.94;;;15.84;100.00
